createdAt,value
2022-08-12T00:01:03.634Z,6.80
2022-08-12T00:03:51.019Z,8.38
2022-08-12T00:06:39.130Z,6.18
2022-08-12T00:09:26.545Z,4.13
2022-08-12T00:12:12.990Z,4.60
2022-08-12T00:14:58.887Z,5.15
2022-08-12T00:17:45.156Z,7.57
2022-08-12T00:20:31.459Z,5.38
2022-08-12T00:23:17.696Z,6.30
2022-08-12T00:26:23.771Z,9.48
2022-08-12T00:29:12.430Z,8.75
2022-08-12T00:32:00.075Z,16.40
2022-08-12T00:34:48.484Z,4.38
2022-08-12T00:37:36.442Z,5.05
2022-08-12T00:40:24.779Z,9.38
2022-08-12T00:42:53.108Z,4.03
2022-08-12T00:45:20.608Z,5.88
2022-08-12T00:47:51.670Z,5.93
2022-08-12T00:50:21.447Z,4.03
2022-08-12T00:52:51.446Z,3.60
2022-08-12T00:55:19.497Z,6.18
2022-08-12T00:57:49.710Z,5.00
2022-08-12T01:00:25.202Z,3.60
2022-08-12T01:02:57.532Z,5.97
2022-08-12T01:05:44.832Z,5.25
2022-08-12T01:08:30.346Z,5.43
2022-08-12T01:11:16.399Z,10.07
2022-08-12T01:13:50.248Z,4.53
2022-08-12T01:16:24.208Z,3.30
2022-08-12T01:18:53.344Z,3.50
2022-08-12T01:21:59.314Z,3.88
2022-08-12T01:24:32.570Z,7.10
2022-08-12T01:27:02.549Z,5.53
2022-08-12T01:29:35.010Z,3.05
2022-08-12T01:32:09.046Z,3.92
2022-08-12T01:34:38.931Z,6.15
2022-08-12T01:37:09.502Z,6.63
2022-08-12T01:40:33.206Z,4.80
2022-08-12T01:42:49.005Z,6.60
2022-08-12T01:45:17.963Z,2.97
2022-08-12T01:48:05.534Z,7.88
2022-08-12T01:51:00.344Z,5.05
2022-08-12T01:53:50.269Z,6.72
2022-08-12T01:56:22.353Z,2.88
2022-08-12T01:59:12.946Z,5.55
2022-08-12T02:01:41.872Z,3.45
2022-08-12T02:04:57.937Z,8.23
2022-08-12T02:08:09.991Z,4.72
2022-08-12T02:11:18.858Z,4.10
2022-08-12T02:14:01.685Z,4.45
2022-08-12T02:16:31.618Z,3.92
2022-08-12T02:19:23.015Z,5.25
2022-08-12T02:22:21.769Z,5.50
2022-08-12T02:24:51.015Z,5.57
2022-08-12T02:27:19.624Z,4.20
2022-08-12T02:29:47.629Z,2.85
2022-08-12T02:32:15.279Z,3.50
2022-08-12T02:34:44.579Z,4.90
2022-08-12T02:37:15.490Z,2.35
2022-08-12T02:39:48.773Z,5.57
2022-08-12T02:42:20.747Z,7.03
2022-08-12T02:44:53.236Z,2.90
2022-08-12T02:47:59.735Z,5.43
2022-08-12T02:50:14.739Z,4.93
2022-08-12T02:52:43.731Z,3.92
2022-08-12T02:55:28.844Z,4.05
2022-08-12T02:58:09.252Z,5.43
2022-08-12T03:00:40.682Z,5.93
2022-08-12T03:03:11.652Z,4.38
2022-08-12T03:05:46.949Z,5.85
2022-08-12T03:08:31.320Z,4.65
2022-08-12T03:11:04.515Z,4.85
2022-08-12T03:13:39.037Z,7.18
2022-08-12T03:16:07.645Z,2.85
2022-08-12T03:18:35.507Z,4.80
2022-08-12T03:21:03.387Z,3.78
2022-08-12T03:23:31.690Z,5.13
2022-08-12T03:26:02.443Z,5.40
2022-08-12T03:28:50.825Z,7.30
2022-08-12T03:31:24.757Z,8.48
2022-08-12T03:34:01.254Z,4.28
2022-08-12T03:36:35.662Z,3.78
2022-08-12T03:39:45.831Z,5.28
2022-08-12T03:42:30.895Z,6.32
2022-08-12T03:45:28.419Z,5.35
2022-08-12T03:48:33.402Z,4.85
2022-08-12T03:51:21.004Z,5.43
2022-08-12T03:54:10.582Z,6.45
2022-08-12T03:56:57.432Z,7.97
2022-08-12T03:59:43.152Z,6.13
2022-08-12T04:02:15.626Z,6.28
2022-08-12T04:04:45.469Z,7.80
2022-08-12T04:07:13.739Z,8.13
2022-08-12T04:09:42.749Z,7.03
2022-08-12T04:12:32.261Z,8.00
2022-08-12T04:15:03.660Z,5.35
2022-08-12T04:17:31.933Z,3.97
2022-08-12T04:19:59.805Z,7.15
2022-08-12T04:22:29.473Z,6.85
2022-08-12T04:25:01.132Z,7.20
2022-08-12T04:27:30.141Z,4.53
2022-08-12T04:30:30.565Z,7.72
2022-08-12T04:32:48.193Z,5.03
2022-08-12T04:35:17.110Z,8.43
2022-08-12T04:37:58.487Z,5.28
2022-08-12T04:40:30.691Z,4.07
2022-08-12T04:42:58.764Z,6.82
2022-08-12T04:45:25.876Z,8.05
2022-08-12T04:47:52.984Z,5.07
2022-08-12T04:50:33.977Z,3.83
2022-08-12T04:53:03.108Z,9.55
2022-08-12T04:55:30.165Z,5.03
2022-08-12T04:57:57.124Z,6.88
2022-08-12T05:00:24.257Z,7.38
2022-08-12T05:02:51.176Z,9.93
2022-08-12T05:05:20.780Z,5.70
2022-08-12T05:07:54.585Z,6.55
2022-08-12T05:10:33.429Z,6.95
2022-08-12T05:13:08.689Z,7.15
2022-08-12T05:16:00.246Z,8.70
2022-08-12T05:20:59.170Z,7.57
2022-08-12T05:23:27.163Z,8.13
2022-08-12T05:25:58.190Z,9.57
2022-08-12T05:28:27.148Z,5.38
2022-08-12T05:30:55.346Z,7.15
2022-08-12T05:33:26.618Z,5.70
2022-08-12T05:35:53.823Z,5.95
2022-08-12T05:38:39.314Z,5.78
2022-08-12T05:41:19.210Z,5.82
2022-08-12T05:43:52.139Z,5.93
2022-08-12T05:46:21.014Z,7.75
2022-08-12T05:48:49.544Z,4.30
2022-08-12T05:51:16.908Z,8.05
2022-08-12T05:53:44.777Z,11.18
2022-08-12T05:56:33.614Z,6.70
2022-08-12T05:59:04.078Z,6.03
2022-08-12T06:02:11.859Z,8.90
2022-08-12T06:04:17.963Z,11.30
2022-08-12T06:06:51.334Z,7.80
2022-08-12T06:09:18.216Z,5.28
2022-08-12T06:12:04.459Z,5.68
2022-08-12T06:14:36.548Z,4.47
2022-08-12T06:17:05.390Z,7.47
2022-08-12T06:20:28.252Z,4.93
2022-08-12T06:22:19.774Z,10.23
2022-08-12T06:24:48.544Z,8.40
2022-08-12T06:27:17.793Z,7.40
2022-08-12T06:30:08.362Z,7.43
2022-08-12T06:32:32.060Z,4.90
2022-08-12T06:35:23.978Z,4.88
2022-08-12T06:37:56.976Z,6.30
2022-08-12T06:40:43.745Z,7.13
2022-08-12T06:43:11.024Z,6.15
2022-08-12T06:45:49.312Z,6.65
2022-08-12T06:48:17.498Z,9.15
2022-08-12T06:50:45.329Z,8.85
2022-08-12T06:53:12.600Z,5.82
2022-08-12T06:55:56.643Z,6.45
2022-08-12T06:58:29.026Z,6.07
2022-08-12T07:00:59.292Z,7.55
2022-08-12T07:03:30.350Z,5.67
2022-08-12T07:06:06.832Z,4.85
2022-08-12T07:08:35.368Z,7.78
2022-08-12T07:11:05.141Z,5.82
2022-08-12T07:14:11.263Z,5.47
2022-08-12T07:16:28.475Z,6.10
2022-08-12T07:18:56.860Z,5.93
2022-08-12T07:22:01.917Z,7.10
2022-08-12T07:24:12.552Z,5.35
2022-08-12T07:26:43.714Z,8.93
2022-08-12T07:29:11.804Z,5.60
2022-08-12T07:31:39.242Z,5.85
2022-08-12T07:34:06.428Z,5.93
2022-08-12T07:36:33.902Z,8.38
2022-08-12T07:39:02.635Z,6.85
2022-08-12T07:41:31.933Z,5.18
2022-08-12T07:44:06.379Z,7.57
2022-08-12T07:46:40.297Z,3.63
2022-08-12T07:49:10.465Z,7.40
2022-08-12T07:51:38.602Z,7.53
2022-08-12T07:54:09.612Z,5.38
2022-08-12T07:56:38.970Z,6.10
2022-08-12T07:59:08.763Z,4.57
2022-08-12T08:01:38.215Z,4.70
2022-08-12T08:04:25.375Z,5.57
2022-08-12T08:06:53.088Z,3.10
2022-08-12T08:09:22.296Z,3.83
2022-08-12T08:12:09.216Z,3.97
2022-08-12T08:14:49.767Z,5.40
2022-08-12T08:17:17.504Z,3.88
2022-08-12T08:20:02.221Z,6.30
2022-08-12T08:22:40.709Z,3.38
2022-08-12T08:25:35.095Z,2.85
2022-08-12T08:28:00.116Z,3.47
2022-08-12T08:30:45.789Z,2.83
2022-08-12T08:33:23.415Z,6.47
2022-08-12T08:36:02.250Z,3.17
2022-08-12T08:38:33.360Z,3.67
2022-08-12T08:42:17.783Z,5.72
2022-08-12T08:44:12.093Z,4.20
2022-08-12T08:46:40.735Z,2.63
2022-08-12T08:49:08.316Z,5.85
2022-08-12T08:51:36.483Z,3.75
2022-08-12T08:54:03.694Z,4.47
2022-08-12T08:56:30.865Z,4.45
2022-08-12T08:58:58.335Z,3.00
2022-08-12T09:01:37.441Z,2.95
2022-08-12T09:05:12.428Z,4.35
2022-08-12T09:06:58.549Z,3.50
2022-08-12T09:09:34.212Z,3.25
2022-08-12T09:12:32.689Z,4.22
2022-08-12T09:15:07.073Z,5.90
2022-08-12T09:17:59.965Z,3.78
2022-08-12T09:20:33.291Z,4.53
2022-08-12T09:23:08.003Z,5.80
2022-08-12T09:25:49.470Z,3.70
2022-08-12T09:28:18.272Z,3.30
2022-08-12T09:30:46.809Z,7.18
2022-08-12T09:33:19.014Z,5.22
2022-08-12T09:36:05.713Z,4.10
2022-08-12T09:42:33.504Z,3.53
2022-08-12T09:44:38.465Z,6.25
2022-08-12T09:46:56.257Z,6.97
2022-08-12T09:49:26.867Z,4.43
2022-08-12T09:51:55.829Z,4.13
2022-08-12T09:54:34.086Z,4.05
2022-08-12T09:58:08.232Z,5.75
2022-08-12T10:00:16.137Z,8.13
2022-08-12T10:03:09.173Z,4.28
2022-08-12T10:06:26.510Z,4.45
2022-08-12T10:08:44.536Z,14.50
2022-08-12T10:12:07.810Z,14.43
2022-08-12T10:14:34.770Z,4.90
2022-08-12T10:17:03.279Z,4.82
2022-08-12T10:19:37.862Z,5.35
2022-08-12T10:22:06.210Z,6.10
2022-08-12T10:25:17.496Z,7.68
2022-08-12T10:28:09.025Z,4.13
2022-08-12T10:30:46.869Z,6.32
2022-08-12T10:33:30.921Z,4.18
2022-08-12T10:36:00.453Z,6.70
2022-08-12T10:38:34.681Z,4.95
2022-08-12T10:41:58.010Z,7.50
2022-08-12T10:44:17.487Z,4.68
2022-08-12T10:46:50.270Z,8.15
2022-08-12T10:50:02.535Z,5.28
2022-08-12T10:52:34.683Z,4.78
2022-08-12T10:54:56.228Z,8.15
2022-08-12T10:58:14.095Z,5.80
2022-08-12T11:00:34.469Z,5.55
2022-08-12T11:04:31.476Z,7.70
2022-08-12T11:07:07.639Z,9.80
2022-08-12T11:08:43.362Z,8.88
2022-08-12T11:11:17.770Z,8.02
2022-08-12T11:14:06.117Z,11.77
2022-08-12T11:16:40.038Z,7.20
2022-08-12T11:19:31.234Z,8.73
2022-08-12T11:22:01.353Z,5.97
2022-08-12T11:24:32.451Z,6.57
2022-08-12T11:27:07.418Z,6.67
2022-08-12T11:30:02.597Z,8.45
2022-08-12T11:32:23.487Z,9.10
2022-08-12T11:34:54.571Z,5.82
2022-08-12T11:37:25.769Z,5.78
2022-08-12T11:42:45.910Z,6.05
2022-08-12T11:45:16.972Z,25.58
2022-08-12T11:47:44.730Z,10.32
2022-08-12T11:50:19.704Z,6.75
2022-08-12T11:53:58.083Z,8.38
2022-08-12T11:55:35.364Z,10.48
2022-08-12T11:59:22.069Z,12.75
2022-08-12T12:03:48.736Z,6.78
2022-08-12T12:06:17.336Z,7.65
2022-08-12T12:08:50.806Z,7.85
2022-08-12T12:11:20.334Z,8.55
2022-08-12T12:14:08.482Z,13.77
2022-08-12T12:16:38.319Z,6.72
2022-08-12T12:19:08.898Z,9.52
2022-08-12T12:21:48.784Z,6.40
2022-08-12T12:24:21.900Z,9.15
2022-08-12T12:27:00.238Z,10.35
2022-08-12T12:30:18.524Z,13.20
2022-08-12T12:32:29.042Z,6.65
2022-08-12T12:35:44.305Z,12.55
2022-08-12T12:38:11.736Z,11.52
2022-08-12T12:40:42.125Z,6.35
2022-08-12T12:43:12.903Z,8.80
2022-08-12T12:45:44.426Z,9.88
2022-08-12T12:48:16.030Z,9.10
2022-08-12T12:50:51.215Z,9.32
2022-08-12T12:54:07.117Z,9.45
2022-08-12T12:56:18.015Z,8.80
2022-08-12T12:58:45.154Z,8.52
2022-08-12T13:01:25.249Z,6.70
2022-08-12T13:04:01.878Z,9.65
2022-08-12T13:06:31.024Z,6.07
2022-08-12T13:09:02.694Z,7.13
2022-08-12T13:11:41.440Z,11.07
2022-08-12T13:14:29.103Z,10.88
2022-08-12T13:17:06.002Z,10.98
2022-08-12T13:19:45.394Z,10.60
2022-08-12T13:22:19.599Z,8.82
2022-08-12T13:24:54.541Z,12.55
2022-08-12T13:27:35.252Z,7.85
2022-08-12T13:30:12.471Z,8.43
2022-08-12T13:32:57.647Z,11.63
2022-08-12T13:36:02.722Z,10.50
2022-08-12T13:38:13.832Z,6.72
2022-08-12T13:40:41.665Z,7.97
2022-08-12T13:43:40.471Z,12.95
2022-08-12T13:46:12.215Z,9.30
2022-08-12T13:48:45.030Z,9.70
2022-08-12T13:51:14.283Z,11.70
2022-08-12T13:53:58.826Z,11.98
2022-08-12T13:56:35.071Z,9.25
2022-08-12T13:59:09.846Z,12.80
2022-08-12T14:01:40.679Z,9.30
2022-08-12T14:04:12.045Z,7.63
2022-08-12T14:06:41.067Z,11.07
2022-08-12T14:09:17.849Z,8.07
2022-08-12T14:11:58.394Z,9.50
2022-08-12T14:14:27.527Z,10.68
2022-08-12T14:17:02.294Z,10.77
2022-08-12T14:19:38.000Z,9.90
2022-08-12T14:22:13.916Z,8.57
2022-08-12T14:24:42.448Z,7.35
2022-08-12T14:27:12.043Z,7.68
2022-08-12T14:30:05.082Z,14.40
2022-08-12T14:32:37.084Z,7.80
2022-08-12T14:35:09.579Z,7.43
2022-08-12T14:37:56.473Z,9.73
2022-08-12T14:40:29.078Z,12.32
2022-08-12T14:42:58.901Z,12.60
2022-08-12T14:45:45.424Z,12.38
2022-08-12T14:48:18.253Z,11.23
2022-08-12T14:51:02.583Z,13.43
2022-08-12T14:59:55.683Z,9.60
2022-08-12T15:02:21.092Z,10.73
2022-08-12T15:04:58.981Z,7.97
2022-08-12T15:07:34.453Z,9.27
2022-08-12T15:10:32.394Z,10.40
2022-08-12T15:13:07.303Z,8.93
2022-08-12T15:15:46.039Z,11.57
2022-08-12T15:18:21.355Z,8.80
2022-08-12T15:20:50.858Z,13.23
2022-08-12T15:23:21.214Z,8.38
2022-08-12T15:26:02.394Z,8.55
2022-08-12T15:28:35.323Z,10.70
2022-08-12T15:31:09.575Z,8.63
2022-08-12T15:34:22.967Z,10.88
2022-08-12T15:36:55.122Z,15.07
2022-08-12T15:39:23.331Z,9.70
2022-08-12T15:41:55.237Z,11.93
2022-08-12T15:44:42.404Z,12.45
2022-08-12T15:47:10.500Z,10.13
2022-08-12T15:49:54.332Z,8.25
2022-08-12T15:52:27.330Z,9.35
2022-08-12T15:54:58.413Z,13.48
2022-08-12T15:57:27.412Z,15.45
2022-08-12T16:00:07.202Z,11.55
2022-08-12T16:02:50.048Z,10.98
2022-08-12T16:06:19.506Z,9.82
2022-08-12T16:08:16.368Z,12.15
2022-08-12T16:10:45.762Z,12.35
2022-08-12T16:13:32.458Z,12.32
2022-08-12T16:16:04.322Z,11.70
2022-08-12T16:18:49.962Z,11.30
2022-08-12T16:21:50.481Z,12.32
2022-08-12T16:24:08.332Z,12.40
2022-08-12T16:26:40.631Z,13.40
2022-08-12T16:29:15.259Z,10.93
2022-08-12T16:31:44.216Z,11.95
2022-08-12T16:34:25.754Z,11.93
2022-08-12T16:37:07.419Z,12.98
2022-08-12T16:39:59.792Z,16.45
2022-08-12T16:42:27.845Z,15.13
2022-08-12T16:44:59.466Z,10.77
2022-08-12T16:47:28.031Z,11.97
2022-08-12T16:49:57.817Z,11.95
2022-08-12T16:52:25.911Z,14.38
2022-08-12T16:54:54.118Z,14.60
2022-08-12T16:57:35.074Z,16.10
2022-08-12T17:00:10.650Z,13.15
2022-08-12T17:02:40.553Z,14.85
2022-08-12T17:05:14.976Z,15.55
2022-08-12T17:07:47.204Z,18.08
2022-08-12T17:10:36.435Z,17.35
2022-08-12T17:13:10.102Z,16.38
2022-08-12T17:15:50.683Z,17.38
2022-08-12T17:18:43.851Z,14.95
2022-08-12T17:21:19.790Z,17.27
2022-08-12T17:23:53.641Z,15.07
2022-08-12T17:26:27.905Z,17.42
2022-08-12T17:28:56.533Z,12.77
2022-08-12T17:32:01.692Z,16.40
2022-08-12T17:34:30.586Z,16.02
2022-08-12T17:37:04.942Z,18.38
2022-08-12T17:40:06.445Z,16.48
2022-08-12T17:42:32.531Z,17.63
2022-08-12T17:45:15.570Z,18.05
2022-08-12T17:48:01.092Z,15.75
2022-08-12T17:50:33.989Z,18.17
2022-08-12T17:53:02.398Z,16.92
2022-08-12T17:55:43.715Z,18.02
2022-08-12T17:58:12.787Z,19.95
2022-08-12T18:00:44.214Z,17.52
2022-08-12T18:04:04.634Z,17.15
2022-08-12T18:06:08.402Z,18.23
2022-08-12T18:08:41.216Z,18.42
2022-08-12T18:12:04.320Z,18.08
2022-08-12T18:14:15.793Z,16.17
2022-08-12T18:16:55.228Z,16.80
2022-08-12T18:19:22.887Z,17.58
2022-08-12T18:22:02.274Z,15.40
2022-08-12T18:24:30.559Z,15.48
2022-08-12T18:26:57.509Z,19.27
2022-08-12T18:29:27.250Z,18.08
2022-08-12T18:32:35.211Z,18.42
2022-08-12T18:35:10.711Z,20.35
2022-08-12T18:37:41.671Z,23.58
2022-08-12T18:40:28.671Z,22.25
2022-08-12T18:42:59.315Z,21.42
2022-08-12T18:45:31.676Z,17.90
2022-08-12T18:48:16.648Z,18.35
2022-08-12T18:50:50.144Z,20.77
2022-08-12T18:54:05.004Z,21.63
2022-08-12T18:56:07.327Z,20.30
2022-08-12T18:58:59.962Z,24.58
2022-08-12T19:02:19.784Z,22.33
2022-08-12T19:04:15.708Z,22.23
2022-08-12T19:06:46.606Z,21.17
2022-08-12T19:09:15.143Z,24.20
2022-08-12T19:12:01.771Z,21.10
2022-08-12T19:14:28.702Z,22.23
2022-08-12T19:17:05.053Z,22.20
2022-08-12T19:19:37.488Z,21.67
2022-08-12T19:22:09.335Z,20.08
2022-08-12T19:24:54.929Z,19.73
2022-08-12T19:27:23.711Z,18.20
2022-08-12T19:30:07.191Z,16.00
2022-08-12T19:32:37.101Z,19.48
2022-08-12T19:36:07.292Z,16.83
2022-08-12T19:38:03.451Z,20.02
2022-08-12T19:40:35.171Z,18.75
2022-08-12T19:43:17.847Z,18.92
2022-08-12T19:45:50.526Z,20.50
2022-08-12T19:48:19.735Z,19.02
2022-08-12T19:50:52.781Z,17.73
2022-08-12T19:53:24.773Z,16.50
2022-08-12T19:58:23.920Z,19.30
2022-08-12T20:00:54.784Z,16.13
2022-08-12T20:03:38.847Z,15.85
2022-08-12T20:06:21.529Z,15.95
2022-08-12T20:08:55.866Z,15.43
2022-08-12T20:12:11.776Z,17.38
2022-08-12T20:14:19.027Z,13.63
2022-08-12T20:16:52.132Z,17.85
2022-08-12T20:19:23.330Z,20.38
2022-08-12T20:21:50.836Z,20.38
2022-08-12T20:24:19.127Z,16.42
2022-08-12T20:26:46.553Z,17.95
2022-08-12T20:29:16.580Z,18.30
2022-08-12T20:31:44.283Z,25.58
2022-08-12T20:34:12.461Z,19.98
2022-08-12T20:36:44.392Z,20.38
2022-08-12T20:39:34.340Z,19.17
2022-08-12T20:42:07.332Z,20.60
2022-08-12T20:44:40.516Z,19.33
2022-08-12T20:47:19.905Z,23.77
2022-08-12T20:49:55.387Z,22.08
2022-08-12T20:52:29.794Z,19.13
2022-08-12T20:54:57.922Z,19.98
2022-08-12T20:57:37.406Z,20.48
2022-08-12T21:00:15.397Z,22.55
2022-08-12T21:02:46.604Z,20.70
2022-08-12T21:06:12.351Z,19.38
2022-08-12T21:08:26.652Z,19.05
2022-08-12T21:10:54.616Z,19.27
2022-08-12T21:13:26.764Z,19.70
2022-08-12T21:15:59.677Z,20.58
2022-08-12T21:18:29.100Z,19.00
2022-08-12T21:20:59.107Z,21.17
2022-08-12T21:23:30.900Z,17.90
2022-08-12T21:26:16.192Z,18.50
2022-08-12T21:28:56.573Z,20.48
2022-08-12T21:32:39.884Z,17.17
2022-08-12T21:34:17.968Z,18.52
2022-08-12T21:36:51.930Z,18.42
2022-08-12T21:39:32.643Z,21.08
2022-08-12T21:42:06.855Z,19.38
2022-08-12T21:45:46.319Z,23.13
2022-08-12T21:47:24.749Z,24.20
2022-08-12T21:50:03.102Z,21.73
2022-08-12T21:52:40.844Z,19.48
2022-08-12T21:55:17.935Z,19.27
2022-08-12T21:57:53.213Z,17.75
2022-08-12T22:00:31.560Z,17.38
2022-08-12T22:04:02.061Z,16.55
2022-08-12T22:06:31.285Z,18.85
2022-08-12T22:09:15.419Z,14.85
2022-08-12T22:11:44.092Z,16.42
2022-08-12T22:14:24.261Z,14.57
2022-08-12T22:16:53.643Z,16.30
2022-08-12T22:19:22.807Z,17.88
2022-08-12T22:21:53.952Z,14.05
2022-08-12T22:24:26.765Z,18.35
2022-08-12T22:27:18.215Z,13.88
2022-08-12T22:30:16.014Z,16.05
2022-08-12T22:32:51.602Z,12.60
2022-08-12T22:35:47.579Z,15.15
2022-08-12T22:38:26.553Z,14.88
2022-08-12T22:41:05.305Z,14.23
2022-08-12T22:44:00.845Z,13.18
2022-08-12T22:46:34.788Z,15.73
2022-08-12T22:49:02.042Z,16.33
2022-08-12T22:51:57.473Z,15.73
2022-08-12T22:54:35.486Z,17.13
2022-08-12T22:57:03.857Z,14.75
2022-08-12T22:59:33.737Z,15.60
2022-08-12T23:02:17.786Z,17.05
2022-08-12T23:04:59.731Z,18.38
2022-08-12T23:07:27.825Z,15.38
2022-08-12T23:10:03.936Z,13.63
2022-08-12T23:12:49.516Z,20.10
2022-08-12T23:15:16.706Z,15.95
2022-08-12T23:17:46.150Z,14.52
2022-08-12T23:20:13.453Z,17.42
2022-08-12T23:22:41.003Z,13.38
2022-08-12T23:25:20.860Z,13.75
2022-08-12T23:28:29.309Z,15.82
2022-08-12T23:31:04.201Z,19.05
2022-08-12T23:34:00.219Z,14.18
2022-08-12T23:36:39.462Z,18.73
2022-08-12T23:40:06.764Z,17.25
2022-08-12T23:42:16.666Z,16.05
2022-08-12T23:44:47.296Z,13.85
2022-08-12T23:47:16.210Z,14.85
2022-08-12T23:49:58.020Z,13.82
2022-08-12T23:52:46.678Z,11.98
2022-08-12T23:55:25.172Z,14.05
2022-08-12T23:58:20.653Z,10.50
